الصفحة الرئيسية
METAR-TAF:

METAR-TAF

مطار :

Double Eagle II Airport

ألباكركي, نيومكسيكو, الولايات المتحدة

دائرة عرض: 35-08-42N, خط طول: 106-47-42W, ارتفاع: 1779 متر

مراقبة الطقس الحالي

تاريخ ووقت الإصدار 28 دقيقة قبل الساعة 21:49UTC
ريح 8 عقدة من الجنوب
درجة الحرارة 16°درجة مئوية
الرطوبة 21%
ضغط 1022 hPa
الرؤية: 16.1 كم
غيوم قليلة على ارتفاع 12000 قدم

METAR: KAEG 182149Z 19008KT 10SM FEW120 16/M06 A3017

زمن: 16:17 (22:17 UTC)

توقعات

تاريخ ووقت الإصدار 4ساعات و 55 دقيقة قبل الساعة 17:22UTC
التوقعات صالحة من18 الساعة 18 UTC إلى 19 الساعة 18 UTC
ريح 12 عقدة من الجنوب الشرقي
الرؤية: 10 كم
سماء صافية
من 18 الساعة 2000 UTC
ريح 10 عقدة من الجنوب
الرؤية: 10 كم
غيوم قليلة على ارتفاع 8000 قدم
من 19 الساعة 0300 UTC
ريح 5 عقدةمن اتجاهات متغيرة
الرؤية: 10 كم
غيوم مفككة على ارتفاع 9000 قدم

TAF: KAEG 181722Z 1818/1918 14012KT P6SM SKC FM182000 18010KT P6SM FEW080 FM190300 VRB05KT P6SM BKN090

أرصاد الطقس والتوقعات من أكثر من 4000 مطار (تقارير الطقس للمطار METAR والتنبؤ بالطقس بالمطارTAF).

المحطات المتاحة هي النقط الصفراء والحمراء على الخريطة.

حرك المؤشر فوق النقطة لمعرفة اسم المحطة.

ثم انقر لمعرفة أرصاد وتوقعات الطقس.

لتغيير الخارطة: اضغط على الأزرار الخضراء مع رمز الصليب الأسود للتكبير. على الزر الأخضر مع شرطة للتصغير، أو على الأسهم الخضراء للخرائط المجاورة.


METAR-TAF: